FDX62C EGKK-EGNX
Flight info
| Callsign | FDX62C |
|---|---|
| Flight time | N/A |
| Altitude | 18000 |
| Route | LAM N57 WELIN |
| Aircraft | B738/M-SDE2E3FGHIRWXY/LB1 |
Departure
| Time | 2026-05-04 12:48 |
|---|---|
| Airport | London Gatwick Airport (EGKK) |
Arrival
| Time | N/A |
|---|---|
| Airport | East Midlands Airport (EGNX) |
| Time | Latitude | Longitude | Altitude | Speed | Heading |
|---|---|---|---|---|---|
| 2026-05-04 12:04 | 51.15652 | -0.18907 | 208 ft | 0 kts | 347° |
| 2026-05-04 12:15 | 51.15653 | -0.18907 | 209 ft | 0 kts | 347° |
| 2026-05-04 12:34 | 51.15643 | -0.18904 | 211 ft | 4 kts | 348° |
| 2026-05-04 12:34 | 51.15617 | -0.18895 | 210 ft | 4 kts | 346° |
| 2026-05-04 12:34 | 51.15596 | -0.18885 | 219 ft | 2 kts | 332° |
| 2026-05-04 12:34 | 51.15576 | -0.18863 | 219 ft | 4 kts | 302° |
| 2026-05-04 12:35 | 51.15564 | -0.18826 | 219 ft | 4 kts | 310° |
| 2026-05-04 12:35 | 51.15558 | -0.18815 | 219 ft | 0 kts | 316° |
| 2026-05-04 12:36 | 51.15562 | -0.18814 | 219 ft | 1 kts | 347° |
| 2026-05-04 12:37 | 51.15571 | -0.18806 | 213 ft | 0 kts | 39° |
| 2026-05-04 12:38 | 51.15571 | -0.18805 | 207 ft | 1 kts | 39° |
| 2026-05-04 12:39 | 51.15583 | -0.18776 | 217 ft | 6 kts | 65° |
| 2026-05-04 12:39 | 51.15596 | -0.18699 | 210 ft | 8 kts | 78° |
| 2026-05-04 12:39 | 51.15611 | -0.18593 | 209 ft | 11 kts | 77° |
| 2026-05-04 12:39 | 51.15629 | -0.18466 | 211 ft | 12 kts | 77° |
| 2026-05-04 12:40 | 51.15603 | -0.18356 | 211 ft | 12 kts | 154° |
| 2026-05-04 12:40 | 51.15525 | -0.18324 | 207 ft | 12 kts | 168° |
| 2026-05-04 12:40 | 51.15433 | -0.18293 | 210 ft | 15 kts | 168° |
| 2026-05-04 12:40 | 51.15327 | -0.18256 | 206 ft | 16 kts | 168° |
| 2026-05-04 12:41 | 51.15211 | -0.18238 | 211 ft | 17 kts | 205° |
| 2026-05-04 12:41 | 51.15173 | -0.18408 | 213 ft | 17 kts | 258° |
| 2026-05-04 12:41 | 51.15144 | -0.18624 | 210 ft | 23 kts | 257° |
| 2026-05-04 12:41 | 51.15106 | -0.18897 | 210 ft | 27 kts | 257° |
| 2026-05-04 12:42 | 51.15068 | -0.19174 | 206 ft | 25 kts | 258° |
| 2026-05-04 12:42 | 51.15033 | -0.19433 | 209 ft | 23 kts | 257° |
| 2026-05-04 12:42 | 51.14999 | -0.19678 | 212 ft | 22 kts | 258° |
| 2026-05-04 12:42 | 51.14966 | -0.19916 | 209 ft | 22 kts | 258° |
| 2026-05-04 12:43 | 51.14935 | -0.20149 | 208 ft | 21 kts | 258° |
| 2026-05-04 12:43 | 51.14904 | -0.20374 | 206 ft | 20 kts | 257° |
| 2026-05-04 12:43 | 51.14873 | -0.20592 | 211 ft | 20 kts | 257° |
| 2026-05-04 12:43 | 51.14844 | -0.20804 | 206 ft | 19 kts | 257° |
| 2026-05-04 12:44 | 51.14816 | -0.21008 | 207 ft | 19 kts | 257° |
| 2026-05-04 12:44 | 51.14780 | -0.21202 | 209 ft | 18 kts | 253° |
| 2026-05-04 12:44 | 51.14748 | -0.21376 | 212 ft | 10 kts | 228° |
| 2026-05-04 12:44 | 51.14724 | -0.21395 | 210 ft | 0 kts | 192° |
| 2026-05-04 12:45 | 51.14720 | -0.21395 | 209 ft | 2 kts | 188° |
| 2026-05-04 12:46 | 51.14684 | -0.21381 | 214 ft | 9 kts | 150° |
| 2026-05-04 12:46 | 51.14643 | -0.21340 | 213 ft | 0 kts | 158° |
| 2026-05-04 12:46 | 51.14639 | -0.21338 | 215 ft | 4 kts | 158° |
| 2026-05-04 12:47 | 51.14564 | -0.21296 | 213 ft | 16 kts | 149° |
| 2026-05-04 12:47 | 51.14522 | -0.21150 | 206 ft | 15 kts | 82° |
| 2026-05-04 12:47 | 51.14527 | -0.21116 | 216 ft | 0 kts | 77° |
| 2026-05-04 12:47 | 51.14530 | -0.21095 | 211 ft | 5 kts | 77° |
| 2026-05-04 12:48 | 51.14587 | -0.20674 | 215 ft | 85 kts | 77° |
| 2026-05-04 12:48 | 51.14781 | -0.19259 | 214 ft | 169 kts | 78° |
| 2026-05-04 12:48 | 51.15051 | -0.17155 | 663 ft | 210 kts | 79° |
| 2026-05-04 12:48 | 51.15368 | -0.14823 | 1747 ft | 213 kts | 77° |
| 2026-05-04 12:49 | 51.15689 | -0.12546 | 2892 ft | 214 kts | 77° |
| 2026-05-04 12:49 | 51.16029 | -0.10098 | 3285 ft | 240 kts | 77° |
| 2026-05-04 12:49 | 51.16433 | -0.07374 | 3768 ft | 261 kts | 70° |
| 2026-05-04 12:49 | 51.17383 | -0.04895 | 4608 ft | 268 kts | 52° |
| 2026-05-04 12:50 | 51.18556 | -0.02538 | 5138 ft | 272 kts | 49° |
| 2026-05-04 12:50 | 51.20068 | -0.00797 | 5663 ft | 271 kts | 18° |
| 2026-05-04 12:50 | 51.21918 | -0.00084 | 6305 ft | 278 kts | 11° |
| 2026-05-04 12:50 | 51.23802 | 0.00528 | 6841 ft | 278 kts | 10° |
| 2026-05-04 12:51 | 51.25112 | 0.00953 | 7012 ft | 281 kts | 11° |
| 2026-05-04 12:51 | 51.26612 | 0.01447 | 6995 ft | 280 kts | 11° |
| 2026-05-04 12:51 | 51.28497 | 0.02087 | 7221 ft | 275 kts | 11° |
| 2026-05-04 12:51 | 51.30392 | 0.02743 | 7531 ft | 282 kts | 11° |
| 2026-05-04 12:52 | 51.32327 | 0.03426 | 7853 ft | 287 kts | 12° |
| 2026-05-04 12:52 | 51.34272 | 0.04120 | 8263 ft | 285 kts | 11° |
| 2026-05-04 12:52 | 51.36200 | 0.04813 | 8773 ft | 284 kts | 12° |
| 2026-05-04 12:52 | 51.38146 | 0.05516 | 9315 ft | 289 kts | 12° |
| 2026-05-04 12:53 | 51.40145 | 0.06241 | 9613 ft | 302 kts | 12° |
| 2026-05-04 12:53 | 51.42152 | 0.06971 | 9770 ft | 294 kts | 12° |
| 2026-05-04 12:53 | 51.43468 | 0.07451 | 10017 ft | 292 kts | 12° |
| 2026-05-04 12:53 | 51.44825 | 0.07946 | 10253 ft | 292 kts | 12° |
| 2026-05-04 12:54 | 51.46832 | 0.08679 | 10597 ft | 298 kts | 12° |
| 2026-05-04 12:54 | 51.48862 | 0.09420 | 10941 ft | 300 kts | 12° |
| 2026-05-04 12:54 | 51.50899 | 0.10166 | 11283 ft | 301 kts | 12° |
| 2026-05-04 12:54 | 51.52945 | 0.10916 | 11653 ft | 302 kts | 12° |
| 2026-05-04 12:55 | 51.55001 | 0.11670 | 11997 ft | 304 kts | 12° |